sensor_id;sensor_type;location;lat;lon;timestamp;pressure;altitude;pressure_sealevel;temperature;humidity
15263;BME280;7733;51.554;13.590;2023-06-14T00:00:58;100519.91;;;17.26;56.83
15263;BME280;7733;51.554;13.590;2023-06-14T00:03:24;100523.78;;;17.40;56.46
15263;BME280;7733;51.554;13.590;2023-06-14T00:05:51;100513.47;;;17.32;56.78
15263;BME280;7733;51.554;13.590;2023-06-14T00:08:17;100517.38;;;17.23;57.08
15263;BME280;7733;51.554;13.590;2023-06-14T00:10:44;100510.44;;;17.41;56.21
15263;BME280;7733;51.554;13.590;2023-06-14T00:13:11;100507.69;;;17.44;56.46
15263;BME280;7733;51.554;13.590;2023-06-14T00:15:37;100507.75;;;17.43;56.43
15263;BME280;7733;51.554;13.590;2023-06-14T00:18:04;100517.31;;;17.47;56.55
15263;BME280;7733;51.554;13.590;2023-06-14T00:20:32;100510.34;;;17.22;57.40
15263;BME280;7733;51.554;13.590;2023-06-14T00:23:02;100513.41;;;17.12;57.91
15263;BME280;7733;51.554;13.590;2023-06-14T00:25:28;100511.81;;;17.51;56.20
15263;BME280;7733;51.554;13.590;2023-06-14T00:27:54;100509.09;;;17.31;57.12
15263;BME280;7733;51.554;13.590;2023-06-14T00:30:21;100507.72;;;17.21;57.60
15263;BME280;7733;51.554;13.590;2023-06-14T00:32:47;100504.53;;;17.13;57.77
15263;BME280;7733;51.554;13.590;2023-06-14T00:35:14;100499.53;;;17.05;58.18
15263;BME280;7733;51.554;13.590;2023-06-14T00:37:40;100499.34;;;17.31;57.35
15263;BME280;7733;51.554;13.590;2023-06-14T00:40:07;100508.91;;;17.36;56.98
15263;BME280;7733;51.554;13.590;2023-06-14T00:42:33;100512.59;;;17.10;58.02
15263;BME280;7733;51.554;13.590;2023-06-14T00:45:00;100511.94;;;17.26;57.38
15263;BME280;7733;51.554;13.590;2023-06-14T00:47:26;100516.06;;;17.33;57.17
15263;BME280;7733;51.554;13.590;2023-06-14T00:49:53;100501.75;;;17.38;56.93
15263;BME280;7733;51.554;13.590;2023-06-14T00:52:22;100509.44;;;17.22;57.30
15263;BME280;7733;51.554;13.590;2023-06-14T00:54:49;100507.44;;;17.28;57.29
15263;BME280;7733;51.554;13.590;2023-06-14T00:57:16;100509.09;;;17.31;56.81
15263;BME280;7733;51.554;13.590;2023-06-14T00:59:47;100505.13;;;17.19;57.44
15263;BME280;7733;51.554;13.590;2023-06-14T01:02:14;100510.34;;;17.22;57.24
15263;BME280;7733;51.554;13.590;2023-06-14T01:04:47;100508.44;;;17.26;57.33
15263;BME280;7733;51.554;13.590;2023-06-14T01:13:28;100501.69;;;17.17;57.51
15263;BME280;7733;51.554;13.590;2023-06-14T01:15:52;100497.88;;;17.02;58.14
15263;BME280;7733;51.554;13.590;2023-06-14T01:18:18;100504.50;;;16.91;58.60
15263;BME280;7733;51.554;13.590;2023-06-14T01:20:46;100500.16;;;16.65;59.56
15263;BME280;7733;51.554;13.590;2023-06-14T01:23:17;100502.38;;;16.52;60.05
15263;BME280;7733;51.554;13.590;2023-06-14T01:25:43;100503.13;;;16.56;59.99
15263;BME280;7733;51.554;13.590;2023-06-14T01:28:11;100505.25;;;16.46;60.43
15263;BME280;7733;51.554;13.590;2023-06-14T01:30:42;100509.09;;;16.61;59.76
15263;BME280;7733;51.554;13.590;2023-06-14T01:33:17;100502.94;;;16.85;58.63
15263;BME280;7733;51.554;13.590;2023-06-14T01:35:51;100505.59;;;16.60;59.52
15263;BME280;7733;51.554;13.590;2023-06-14T01:38:21;100507.19;;;16.41;60.57
15263;BME280;7733;51.554;13.590;2023-06-14T01:40:48;100502.72;;;16.68;59.36
15263;BME280;7733;51.554;13.590;2023-06-14T01:43:16;100509.06;;;16.62;59.64
15263;BME280;7733;51.554;13.590;2023-06-14T01:45:45;100506.59;;;16.33;60.69
15263;BME280;7733;51.554;13.590;2023-06-14T01:48:13;100498.59;;;16.34;60.55
15263;BME280;7733;51.554;13.590;2023-06-14T01:50:39;100507.03;;;15.96;62.57
15263;BME280;7733;51.554;13.590;2023-06-14T01:53:09;100506.44;;;16.37;60.74
15263;BME280;7733;51.554;13.590;2023-06-14T01:55:36;100500.94;;;16.43;60.43
15263;BME280;7733;51.554;13.590;2023-06-14T01:58:04;100499.59;;;16.32;61.21
15263;BME280;7733;51.554;13.590;2023-06-14T02:00:30;100496.78;;;16.11;61.80
15263;BME280;7733;51.554;13.590;2023-06-14T02:02:56;100501.69;;;15.97;62.32
15263;BME280;7733;51.554;13.590;2023-06-14T02:05:23;100505.63;;;16.10;61.75
15263;BME280;7733;51.554;13.590;2023-06-14T02:07:49;100508.00;;;16.18;61.37
15263;BME280;7733;51.554;13.590;2023-06-14T02:10:16;100510.06;;;16.35;60.50
15263;BME280;7733;51.554;13.590;2023-06-14T02:12:43;100514.16;;;16.19;61.36
15263;BME280;7733;51.554;13.590;2023-06-14T02:15:09;100514.72;;;16.28;61.10
15263;BME280;7733;51.554;13.590;2023-06-14T02:17:43;100520.19;;;16.24;60.91
15263;BME280;7733;51.554;13.590;2023-06-14T02:20:10;100521.41;;;16.13;61.09
15263;BME280;7733;51.554;13.590;2023-06-14T02:22:36;100521.34;;;16.15;61.10
15263;BME280;7733;51.554;13.590;2023-06-14T02:25:02;100529.25;;;15.90;62.20
15263;BME280;7733;51.554;13.590;2023-06-14T02:27:28;100525.41;;;16.25;60.61
15263;BME280;7733;51.554;13.590;2023-06-14T02:29:54;100526.66;;;15.89;62.58
15263;BME280;7733;51.554;13.590;2023-06-14T02:32:19;100523.13;;;15.90;62.33
15263;BME280;7733;51.554;13.590;2023-06-14T02:34:45;100527.47;;;15.91;62.39
15263;BME280;7733;51.554;13.590;2023-06-14T02:37:16;100522.53;;;16.06;61.39
15263;BME280;7733;51.554;13.590;2023-06-14T02:39:42;100531.06;;;15.34;64.26
15263;BME280;7733;51.554;13.590;2023-06-14T02:42:08;100524.84;;;15.91;62.45
15263;BME280;7733;51.554;13.590;2023-06-14T02:44:33;100540.56;;;15.39;64.97
15263;BME280;7733;51.554;13.590;2023-06-14T02:46:59;100534.47;;;15.67;63.68
15263;BME280;7733;51.554;13.590;2023-06-14T02:49:26;100539.09;;;15.59;63.53
15263;BME280;7733;51.554;13.590;2023-06-14T02:51:52;100539.97;;;15.87;61.52
15263;BME280;7733;51.554;13.590;2023-06-14T02:54:18;100537.09;;;15.67;63.08
15263;BME280;7733;51.554;13.590;2023-06-14T02:56:43;100553.19;;;15.02;65.93
15263;BME280;7733;51.554;13.590;2023-06-14T02:59:09;100550.53;;;15.31;64.85
15263;BME280;7733;51.554;13.590;2023-06-14T03:01:35;100549.03;;;15.50;64.07
15263;BME280;7733;51.554;13.590;2023-06-14T03:04:04;100545.03;;;15.09;65.51
15263;BME280;7733;51.554;13.590;2023-06-14T03:06:30;100556.06;;;15.24;65.70
15263;BME280;7733;51.554;13.590;2023-06-14T03:08:57;100552.72;;;15.17;65.80
15263;BME280;7733;51.554;13.590;2023-06-14T03:11:30;100540.75;;;15.63;63.19
15263;BME280;7733;51.554;13.590;2023-06-14T03:13:56;100552.16;;;15.65;62.98
15263;BME280;7733;51.554;13.590;2023-06-14T03:16:22;100556.00;;;15.81;62.09
15263;BME280;7733;51.554;13.590;2023-06-14T03:18:53;100552.59;;;14.92;67.01
15263;BME280;7733;51.554;13.590;2023-06-14T03:21:19;100556.94;;;15.52;63.85
15263;BME280;7733;51.554;13.590;2023-06-14T03:23:48;100557.84;;;15.23;65.61
15263;BME280;7733;51.554;13.590;2023-06-14T03:26:15;100553.09;;;15.05;66.45
15263;BME280;7733;51.554;13.590;2023-06-14T03:28:47;100552.28;;;15.03;66.75
15263;BME280;7733;51.554;13.590;2023-06-14T03:31:13;100554.09;;;15.30;65.61
15263;BME280;7733;51.554;13.590;2023-06-14T03:33:40;100549.84;;;15.52;64.04
15263;BME280;7733;51.554;13.590;2023-06-14T03:36:06;100563.47;;;15.11;66.00
15263;BME280;7733;51.554;13.590;2023-06-14T03:38:32;100572.47;;;14.74;67.96
15263;BME280;7733;51.554;13.590;2023-06-14T03:40:58;100569.84;;;15.33;65.29
15263;BME280;7733;51.554;13.590;2023-06-14T03:43:24;100577.69;;;15.36;65.07
15263;BME280;7733;51.554;13.590;2023-06-14T03:45:50;100575.19;;;15.32;65.59
15263;BME280;7733;51.554;13.590;2023-06-14T03:48:16;100582.88;;;15.10;66.86
15263;BME280;7733;51.554;13.590;2023-06-14T03:50:42;100586.06;;;15.21;66.32
15263;BME280;7733;51.554;13.590;2023-06-14T03:53:08;100585.50;;;15.39;65.78
15263;BME280;7733;51.554;13.590;2023-06-14T03:55:34;100589.25;;;15.32;66.21
15263;BME280;7733;51.554;13.590;2023-06-14T03:58:00;100597.50;;;15.51;65.36
15263;BME280;7733;51.554;13.590;2023-06-14T04:00:26;100595.44;;;15.61;64.75
15263;BME280;7733;51.554;13.590;2023-06-14T04:02:52;100606.59;;;15.42;65.78
15263;BME280;7733;51.554;13.590;2023-06-14T04:05:19;100605.28;;;14.97;68.55
15263;BME280;7733;51.554;13.590;2023-06-14T04:07:48;100609.50;;;15.33;67.22
15263;BME280;7733;51.554;13.590;2023-06-14T04:10:15;100610.00;;;15.46;66.32
15263;BME280;7733;51.554;13.590;2023-06-14T04:12:42;100613.56;;;14.84;69.65
15263;BME280;7733;51.554;13.590;2023-06-14T04:15:09;100612.84;;;15.38;67.38
15263;BME280;7733;51.554;13.590;2023-06-14T04:17:36;100602.75;;;15.52;66.97
15263;BME280;7733;51.554;13.590;2023-06-14T04:20:03;100612.69;;;15.15;68.35
15263;BME280;7733;51.554;13.590;2023-06-14T04:22:34;100612.28;;;15.29;68.33
15263;BME280;7733;51.554;13.590;2023-06-14T04:25:02;100616.13;;;15.17;68.67
15263;BME280;7733;51.554;13.590;2023-06-14T04:27:28;100607.22;;;15.50;67.01
15263;BME280;7733;51.554;13.590;2023-06-14T04:29:56;100618.41;;;15.00;69.26
15263;BME280;7733;51.554;13.590;2023-06-14T04:32:26;100618.91;;;15.12;68.79
15263;BME280;7733;51.554;13.590;2023-06-14T04:34:56;100617.47;;;15.02;69.91
15263;BME280;7733;51.554;13.590;2023-06-14T04:37:23;100611.59;;;15.51;67.62
15263;BME280;7733;51.554;13.590;2023-06-14T04:39:49;100613.88;;;15.92;66.21
15263;BME280;7733;51.554;13.590;2023-06-14T04:42:16;100617.53;;;15.60;67.67
15263;BME280;7733;51.554;13.590;2023-06-14T04:44:43;100623.59;;;15.91;66.12
15263;BME280;7733;51.554;13.590;2023-06-14T04:47:10;100623.59;;;16.18;65.61
15263;BME280;7733;51.554;13.590;2023-06-14T04:49:38;100617.91;;;16.03;66.25
15263;BME280;7733;51.554;13.590;2023-06-14T04:52:06;100619.63;;;16.31;64.72
15263;BME280;7733;51.554;13.590;2023-06-14T04:54:31;100617.31;;;16.20;65.34
15263;BME280;7733;51.554;13.590;2023-06-14T04:56:58;100616.78;;;16.10;66.39
15263;BME280;7733;51.554;13.590;2023-06-14T04:59:24;100616.47;;;16.20;66.13
15263;BME280;7733;51.554;13.590;2023-06-14T05:01:50;100624.03;;;16.05;66.95
15263;BME280;7733;51.554;13.590;2023-06-14T05:04:18;100629.50;;;15.99;66.83
15263;BME280;7733;51.554;13.590;2023-06-14T05:06:45;100634.66;;;16.30;66.00
15263;BME280;7733;51.554;13.590;2023-06-14T05:09:14;100624.19;;;16.52;65.05
15263;BME280;7733;51.554;13.590;2023-06-14T05:11:42;100635.69;;;16.51;65.08
15263;BME280;7733;51.554;13.590;2023-06-14T05:14:10;100633.22;;;16.47;65.55
15263;BME280;7733;51.554;13.590;2023-06-14T05:16:36;100633.25;;;16.71;64.71
15263;BME280;7733;51.554;13.590;2023-06-14T05:19:03;100635.69;;;16.78;64.29
15263;BME280;7733;51.554;13.590;2023-06-14T05:21:30;100636.88;;;16.94;63.61
15263;BME280;7733;51.554;13.590;2023-06-14T05:23:57;100630.91;;;17.12;62.93
15263;BME280;7733;51.554;13.590;2023-06-14T05:26:23;100638.00;;;16.60;64.90
15263;BME280;7733;51.554;13.590;2023-06-14T05:28:50;100646.44;;;16.98;63.48
15263;BME280;7733;51.554;13.590;2023-06-14T05:31:18;100642.91;;;17.22;62.68
15263;BME280;7733;51.554;13.590;2023-06-14T05:33:43;100647.88;;;16.82;64.62
15263;BME280;7733;51.554;13.590;2023-06-14T05:36:09;100643.41;;;17.09;63.33
15263;BME280;7733;51.554;13.590;2023-06-14T05:38:35;100642.94;;;17.21;63.63
15263;BME280;7733;51.554;13.590;2023-06-14T05:41:01;100642.53;;;17.31;62.39
15263;BME280;7733;51.554;13.590;2023-06-14T05:43:26;100641.00;;;17.02;63.18
15263;BME280;7733;51.554;13.590;2023-06-14T05:45:52;100638.59;;;17.18;62.73
15263;BME280;7733;51.554;13.590;2023-06-14T05:48:18;100639.19;;;17.73;61.14
15263;BME280;7733;51.554;13.590;2023-06-14T05:50:43;100637.59;;;17.69;61.15
15263;BME280;7733;51.554;13.590;2023-06-14T05:53:09;100635.00;;;17.68;60.77
15263;BME280;7733;51.554;13.590;2023-06-14T05:55:35;100636.53;;;17.50;61.16
15263;BME280;7733;51.554;13.590;2023-06-14T05:58:01;100636.16;;;17.59;61.02
15263;BME280;7733;51.554;13.590;2023-06-14T06:00:27;100636.66;;;17.70;60.17
15263;BME280;7733;51.554;13.590;2023-06-14T06:02:53;100632.41;;;17.88;59.74
15263;BME280;7733;51.554;13.590;2023-06-14T06:05:18;100631.03;;;17.78;59.92
15263;BME280;7733;51.554;13.590;2023-06-14T06:07:44;100631.91;;;18.00;59.46
15263;BME280;7733;51.554;13.590;2023-06-14T06:10:11;100622.03;;;17.82;59.51
15263;BME280;7733;51.554;13.590;2023-06-14T06:12:37;100631.16;;;17.97;58.87
15263;BME280;7733;51.554;13.590;2023-06-14T06:15:03;100635.81;;;17.91;58.97
15263;BME280;7733;51.554;13.590;2023-06-14T06:17:29;100627.03;;;17.89;58.79
15263;BME280;7733;51.554;13.590;2023-06-14T06:19:55;100631.41;;;18.12;58.26
15263;BME280;7733;51.554;13.590;2023-06-14T06:22:21;100627.09;;;18.52;57.32
15263;BME280;7733;51.554;13.590;2023-06-14T06:24:47;100634.19;;;18.51;57.57
15263;BME280;7733;51.554;13.590;2023-06-14T06:27:13;100643.97;;;18.51;57.52
15263;BME280;7733;51.554;13.590;2023-06-14T06:29:38;100636.44;;;18.40;57.46
15263;BME280;7733;51.554;13.590;2023-06-14T06:32:05;100644.06;;;18.70;56.26
15263;BME280;7733;51.554;13.590;2023-06-14T06:34:31;100642.31;;;18.48;56.70
15263;BME280;7733;51.554;13.590;2023-06-14T06:36:56;100642.47;;;18.66;56.31
15263;BME280;7733;51.554;13.590;2023-06-14T06:39:22;100654.69;;;18.70;55.95
15263;BME280;7733;51.554;13.590;2023-06-14T06:41:48;100652.81;;;18.92;55.36
15263;BME280;7733;51.554;13.590;2023-06-14T06:44:13;100654.41;;;18.76;55.04
15263;BME280;7733;51.554;13.590;2023-06-14T06:46:39;100658.44;;;19.25;54.30
15263;BME280;7733;51.554;13.590;2023-06-14T06:49:07;100654.63;;;18.92;54.74
15263;BME280;7733;51.554;13.590;2023-06-14T06:51:34;100657.63;;;18.84;54.85
15263;BME280;7733;51.554;13.590;2023-06-14T06:54:00;100655.56;;;19.30;53.74
15263;BME280;7733;51.554;13.590;2023-06-14T06:56:25;100659.72;;;19.35;53.14
15263;BME280;7733;51.554;13.590;2023-06-14T06:58:52;100663.88;;;19.41;53.03
15263;BME280;7733;51.554;13.590;2023-06-14T07:01:18;100655.91;;;19.41;53.22
15263;BME280;7733;51.554;13.590;2023-06-14T07:03:46;100652.69;;;19.53;53.52
15263;BME280;7733;51.554;13.590;2023-06-14T07:06:12;100660.91;;;19.49;53.66
15263;BME280;7733;51.554;13.590;2023-06-14T07:08:38;100663.66;;;19.85;52.85
15263;BME280;7733;51.554;13.590;2023-06-14T07:11:05;100663.66;;;19.85;52.89
15263;BME280;7733;51.554;13.590;2023-06-14T07:13:31;100662.91;;;19.81;52.70
15263;BME280;7733;51.554;13.590;2023-06-14T07:16:00;100660.84;;;19.88;52.21
15263;BME280;7733;51.554;13.590;2023-06-14T07:18:27;100657.16;;;19.90;52.74
15263;BME280;7733;51.554;13.590;2023-06-14T07:20:53;100670.06;;;19.41;53.44
15263;BME280;7733;51.554;13.590;2023-06-14T07:23:20;100664.69;;;19.63;52.61
15263;BME280;7733;51.554;13.590;2023-06-14T07:25:46;100669.41;;;19.57;52.26
15263;BME280;7733;51.554;13.590;2023-06-14T07:28:12;100666.66;;;19.58;52.36
15263;BME280;7733;51.554;13.590;2023-06-14T07:30:38;100666.53;;;19.80;51.77
15263;BME280;7733;51.554;13.590;2023-06-14T07:33:04;100676.56;;;19.36;52.52
15263;BME280;7733;51.554;13.590;2023-06-14T07:35:29;100679.91;;;19.60;51.89
15263;BME280;7733;51.554;13.590;2023-06-14T07:37:55;100677.31;;;19.77;51.75
15263;BME280;7733;51.554;13.590;2023-06-14T07:40:21;100679.19;;;19.56;51.60
15263;BME280;7733;51.554;13.590;2023-06-14T07:42:47;100684.97;;;19.66;51.07
15263;BME280;7733;51.554;13.590;2023-06-14T07:45:16;100683.03;;;19.49;51.57
15263;BME280;7733;51.554;13.590;2023-06-14T07:47:42;100685.84;;;19.46;51.66
15263;BME280;7733;51.554;13.590;2023-06-14T07:50:08;100688.91;;;19.37;51.15
15263;BME280;7733;51.554;13.590;2023-06-14T07:52:35;100687.31;;;19.72;51.23
15263;BME280;7733;51.554;13.590;2023-06-14T07:55:00;100686.31;;;19.93;50.57
15263;BME280;7733;51.554;13.590;2023-06-14T07:57:26;100690.13;;;19.69;51.33
15263;BME280;7733;51.554;13.590;2023-06-14T07:59:52;100688.38;;;19.49;51.45
15263;BME280;7733;51.554;13.590;2023-06-14T08:02:18;100686.03;;;19.41;51.23
15263;BME280;7733;51.554;13.590;2023-06-14T08:04:44;100683.72;;;19.54;51.43
15263;BME280;7733;51.554;13.590;2023-06-14T08:07:09;100687.47;;;19.30;52.22
15263;BME280;7733;51.554;13.590;2023-06-14T08:09:36;100686.22;;;19.95;51.05
15263;BME280;7733;51.554;13.590;2023-06-14T08:12:05;100691.94;;;19.68;51.54
15263;BME280;7733;51.554;13.590;2023-06-14T08:14:33;100685.38;;;19.94;51.25
15263;BME280;7733;51.554;13.590;2023-06-14T08:16:59;100692.47;;;20.13;50.71
15263;BME280;7733;51.554;13.590;2023-06-14T08:19:25;100692.69;;;20.27;51.09
15263;BME280;7733;51.554;13.590;2023-06-14T08:21:51;100687.34;;;20.63;50.63
15263;BME280;7733;51.554;13.590;2023-06-14T08:24:17;100696.75;;;20.70;50.30
15263;BME280;7733;51.554;13.590;2023-06-14T08:26:44;100688.66;;;20.72;50.21
15263;BME280;7733;51.554;13.590;2023-06-14T08:29:10;100696.13;;;20.65;50.08
15263;BME280;7733;51.554;13.590;2023-06-14T08:31:36;100692.81;;;20.43;49.48
15263;BME280;7733;51.554;13.590;2023-06-14T08:34:01;100690.94;;;20.79;49.60
15263;BME280;7733;51.554;13.590;2023-06-14T08:36:27;100691.09;;;20.93;48.12
15263;BME280;7733;51.554;13.590;2023-06-14T08:38:53;100700.25;;;21.55;46.81
15263;BME280;7733;51.554;13.590;2023-06-14T08:41:22;100690.94;;;21.47;46.17
15263;BME280;7733;51.554;13.590;2023-06-14T08:43:52;100683.59;;;21.17;46.12
15263;BME280;7733;51.554;13.590;2023-06-14T08:46:19;100682.13;;;21.29;45.90
15263;BME280;7733;51.554;13.590;2023-06-14T08:48:52;100682.81;;;21.33;45.77
15263;BME280;7733;51.554;13.590;2023-06-14T08:51:19;100676.41;;;21.52;45.63
15263;BME280;7733;51.554;13.590;2023-06-14T08:53:52;100674.31;;;21.58;45.77
15263;BME280;7733;51.554;13.590;2023-06-14T08:56:18;100671.56;;;21.59;46.21
15263;BME280;7733;51.554;13.590;2023-06-14T08:58:47;100670.91;;;21.87;45.63
15263;BME280;7733;51.554;13.590;2023-06-14T09:01:15;100665.56;;;21.71;46.38
15263;BME280;7733;51.554;13.590;2023-06-14T09:03:43;100673.28;;;21.60;46.62
15263;BME280;7733;51.554;13.590;2023-06-14T09:06:10;100668.16;;;21.73;46.23
15263;BME280;7733;51.554;13.590;2023-06-14T09:08:46;100663.13;;;21.98;46.28
15263;BME280;7733;51.554;13.590;2023-06-14T09:11:18;100666.25;;;21.75;46.30
15263;BME280;7733;51.554;13.590;2023-06-14T09:13:46;100665.41;;;21.90;46.50
15263;BME280;7733;51.554;13.590;2023-06-14T09:16:12;100673.59;;;22.19;46.34
15263;BME280;7733;51.554;13.590;2023-06-14T09:18:46;100655.16;;;21.82;47.90
15263;BME280;7733;51.554;13.590;2023-06-14T09:21:16;100665.22;;;21.93;47.40
15263;BME280;7733;51.554;13.590;2023-06-14T09:23:45;100667.59;;;22.45;46.60
15263;BME280;7733;51.554;13.590;2023-06-14T09:26:15;100669.84;;;22.37;47.02
15263;BME280;7733;51.554;13.590;2023-06-14T09:28:48;100672.81;;;22.92;46.92
15263;BME280;7733;51.554;13.590;2023-06-14T09:31:19;100675.50;;;23.06;46.49
15263;BME280;7733;51.554;13.590;2023-06-14T09:33:48;100669.88;;;23.68;45.69
15263;BME280;7733;51.554;13.590;2023-06-14T09:36:22;100672.66;;;23.66;45.07
15263;BME280;7733;51.554;13.590;2023-06-14T09:38:58;100677.53;;;23.46;45.04
15263;BME280;7733;51.554;13.590;2023-06-14T09:41:38;100678.47;;;23.16;45.63
15263;BME280;7733;51.554;13.590;2023-06-14T09:44:07;100674.72;;;22.90;45.94
15263;BME280;7733;51.554;13.590;2023-06-14T09:46:35;100666.81;;;23.46;45.31
15263;BME280;7733;51.554;13.590;2023-06-14T09:49:04;100678.00;;;22.80;46.62
15263;BME280;7733;51.554;13.590;2023-06-14T09:51:31;100673.81;;;22.45;48.09
15263;BME280;7733;51.554;13.590;2023-06-14T09:54:03;100675.88;;;23.00;46.86
15263;BME280;7733;51.554;13.590;2023-06-14T09:56:41;100673.41;;;22.22;48.45
15263;BME280;7733;51.554;13.590;2023-06-14T09:59:09;100687.47;;;22.09;48.75
15263;BME280;7733;51.554;13.590;2023-06-14T10:01:41;100675.78;;;22.42;47.86
15263;BME280;7733;51.554;13.590;2023-06-14T10:04:10;100678.81;;;22.36;47.72
15263;BME280;7733;51.554;13.590;2023-06-14T10:06:40;100678.88;;;22.04;48.58
15263;BME280;7733;51.554;13.590;2023-06-14T10:09:09;100674.53;;;22.17;48.44
15263;BME280;7733;51.554;13.590;2023-06-14T10:11:36;100673.28;;;22.39;48.46
15263;BME280;7733;51.554;13.590;2023-06-14T10:14:05;100676.63;;;22.12;48.88
15263;BME280;7733;51.554;13.590;2023-06-14T10:17:01;100665.66;;;22.63;47.79
15263;BME280;7733;51.554;13.590;2023-06-14T10:19:42;100675.75;;;22.28;48.20
15263;BME280;7733;51.554;13.590;2023-06-14T10:22:19;100666.13;;;22.39;47.36
15263;BME280;7733;51.554;13.590;2023-06-14T10:24:48;100670.41;;;22.28;48.19
15263;BME280;7733;51.554;13.590;2023-06-14T10:27:16;100664.97;;;22.89;46.96
15263;BME280;7733;51.554;13.590;2023-06-14T10:32:25;100661.03;;;22.51;48.03
15263;BME280;7733;51.554;13.590;2023-06-14T10:35:00;100657.94;;;22.72;47.25
15263;BME280;7733;51.554;13.590;2023-06-14T10:37:27;100659.06;;;22.38;48.01
15263;BME280;7733;51.554;13.590;2023-06-14T10:39:53;100660.41;;;22.75;47.73
15263;BME280;7733;51.554;13.590;2023-06-14T10:42:19;100665.22;;;22.55;47.64
15263;BME280;7733;51.554;13.590;2023-06-14T10:50:16;100649.88;;;23.17;46.60
15263;BME280;7733;51.554;13.590;2023-06-14T10:52:45;100652.06;;;22.96;47.25
15263;BME280;7733;51.554;13.590;2023-06-14T10:55:17;100645.22;;;23.06;46.72
15263;BME280;7733;51.554;13.590;2023-06-14T11:00:15;100641.56;;;23.50;46.60
15263;BME280;7733;51.554;13.590;2023-06-14T11:11:37;100640.25;;;22.10;49.52
15263;BME280;7733;51.554;13.590;2023-06-14T11:14:04;100637.75;;;22.23;49.50
15263;BME280;7733;51.554;13.590;2023-06-14T11:16:30;100637.56;;;22.26;50.00
15263;BME280;7733;51.554;13.590;2023-06-14T11:19:01;100636.16;;;22.64;48.87
15263;BME280;7733;51.554;13.590;2023-06-14T11:21:28;100634.22;;;22.66;48.42
15263;BME280;7733;51.554;13.590;2023-06-14T11:23:56;100638.41;;;22.56;48.88
15263;BME280;7733;51.554;13.590;2023-06-14T11:26:30;100647.09;;;22.90;48.23
15263;BME280;7733;51.554;13.590;2023-06-14T11:29:00;100637.25;;;22.46;48.59
15263;BME280;7733;51.554;13.590;2023-06-14T11:31:28;100642.16;;;22.08;49.19
15263;BME280;7733;51.554;13.590;2023-06-14T11:33:56;100639.78;;;22.02;49.08
15263;BME280;7733;51.554;13.590;2023-06-14T11:36:29;100638.00;;;22.48;48.23
15263;BME280;7733;51.554;13.590;2023-06-14T11:39:04;100630.31;;;22.28;48.25
15263;BME280;7733;51.554;13.590;2023-06-14T11:41:39;100630.47;;;22.99;46.97
15263;BME280;7733;51.554;13.590;2023-06-14T11:44:07;100633.25;;;22.97;47.30
15263;BME280;7733;51.554;13.590;2023-06-14T11:46:33;100633.31;;;22.82;47.49
15263;BME280;7733;51.554;13.590;2023-06-14T11:48:59;100623.91;;;23.04;47.38
15263;BME280;7733;51.554;13.590;2023-06-14T11:51:35;100626.66;;;23.31;46.72
15263;BME280;7733;51.554;13.590;2023-06-14T11:54:03;100623.03;;;23.18;46.82
15263;BME280;7733;51.554;13.590;2023-06-14T11:56:31;100618.91;;;22.98;46.16
15263;BME280;7733;51.554;13.590;2023-06-14T11:58:57;100621.50;;;23.00;46.17
15263;BME280;7733;51.554;13.590;2023-06-14T12:01:24;100623.31;;;22.85;46.22
15263;BME280;7733;51.554;13.590;2023-06-14T12:03:53;100627.59;;;23.02;45.96
15263;BME280;7733;51.554;13.590;2023-06-14T12:06:30;100625.50;;;22.93;46.23
15263;BME280;7733;51.554;13.590;2023-06-14T12:09:07;100620.84;;;23.25;45.87
15263;BME280;7733;51.554;13.590;2023-06-14T12:11:38;100622.78;;;22.78;46.84
15263;BME280;7733;51.554;13.590;2023-06-14T12:14:05;100618.72;;;23.16;46.29
15263;BME280;7733;51.554;13.590;2023-06-14T12:16:37;100613.81;;;23.51;45.32
15263;BME280;7733;51.554;13.590;2023-06-14T12:19:29;100607.34;;;22.98;46.77
15263;BME280;7733;51.554;13.590;2023-06-14T12:21:59;100605.44;;;23.00;46.69
15263;BME280;7733;51.554;13.590;2023-06-14T12:24:31;100609.72;;;23.02;47.17
15263;BME280;7733;51.554;13.590;2023-06-14T12:26:58;100613.09;;;22.92;47.49
15263;BME280;7733;51.554;13.590;2023-06-14T12:29:29;100616.94;;;22.72;47.76
15263;BME280;7733;51.554;13.590;2023-06-14T12:31:55;100617.81;;;22.72;47.62
15263;BME280;7733;51.554;13.590;2023-06-14T12:34:26;100616.84;;;22.73;47.79
15263;BME280;7733;51.554;13.590;2023-06-14T12:36:54;100609.28;;;23.24;46.96
15263;BME280;7733;51.554;13.590;2023-06-14T12:39:20;100609.94;;;22.99;47.44
15263;BME280;7733;51.554;13.590;2023-06-14T12:41:47;100607.16;;;23.15;47.01
15263;BME280;7733;51.554;13.590;2023-06-14T12:44:13;100606.38;;;23.42;46.87
15263;BME280;7733;51.554;13.590;2023-06-14T12:46:43;100607.78;;;23.61;46.25
15263;BME280;7733;51.554;13.590;2023-06-14T12:49:12;100606.94;;;24.29;45.00
15263;BME280;7733;51.554;13.590;2023-06-14T12:51:39;100602.66;;;24.12;45.63
15263;BME280;7733;51.554;13.590;2023-06-14T12:54:06;100600.88;;;24.78;43.68
15263;BME280;7733;51.554;13.590;2023-06-14T12:56:32;100601.72;;;24.66;44.11
15263;BME280;7733;51.554;13.590;2023-06-14T12:58:59;100592.50;;;24.70;43.85
15263;BME280;7733;51.554;13.590;2023-06-14T13:01:25;100599.00;;;24.40;44.20
15263;BME280;7733;51.554;13.590;2023-06-14T13:03:50;100591.75;;;24.80;43.16
15263;BME280;7733;51.554;13.590;2023-06-14T13:06:21;100592.94;;;24.89;43.00
15263;BME280;7733;51.554;13.590;2023-06-14T13:08:48;100586.50;;;24.92;43.17
15263;BME280;7733;51.554;13.590;2023-06-14T13:11:14;100578.88;;;25.24;42.23
15263;BME280;7733;51.554;13.590;2023-06-14T13:13:40;100569.00;;;25.24;42.44
15263;BME280;7733;51.554;13.590;2023-06-14T13:16:06;100575.41;;;25.95;41.96
15263;BME280;7733;51.554;13.590;2023-06-14T13:18:31;100578.53;;;25.65;42.29